»·PEaware :: N6707H KSNA-KCRQ

N6707H :: KSNA-KCRQ

FLIGHT INFORMATION

Flight Status: Arrived
Operator: Privately registered:
United States
More flights under this callsign
Pilot: Kyle Z. (33931)
Aircraft: CESSNA 172 SKYHAWK
(C172)
More flights by this aircraft type
Origin: KSNA John Wayne-Orange Co
United States
Destination: KCRQ McClellan-Palomar
United States
More flights between these airports :: More routes between these airports
Route: V23 OCN
File this flight plan on PilotEdge
Remarks:
Altitude:
(Current/Filed)
5,000ft
Speed:
(Current/Filed)
110kts
Departed: 22-Feb-21 02:39 PM
Arrived: 22-Feb-21 03:25 PM
Distance/Time
Traveled:
44nm/0:46
Distance/Time
To Go:
Arrived

Flight Plot

Page will automatically refresh every two minutes.


Map Options




Map Legend


Flown Route
Filed Route
Departure Airport
Arrival Airport
Navaid (VOR, NDB)
Fix

Horizontal Profiles

Position Reports

Time Latitude Longitude Heading Altitude Ground
Speed
22-Feb-21 14:22 33.669958 -117.869283 41 60ft 0kts
22-Feb-21 14:23 33.669958 -117.869283 41 60ft 0kts
22-Feb-21 14:24 33.669958 -117.869283 41 60ft 0kts
22-Feb-21 14:25 33.669958 -117.869283 41 60ft 0kts
22-Feb-21 14:26 33.669958 -117.869283 41 60ft 0kts
22-Feb-21 14:27 33.669958 -117.869283 41 60ft 0kts
22-Feb-21 14:28 33.669958 -117.869283 41 60ft 0kts
22-Feb-21 14:29 33.669958 -117.869283 41 60ft 0kts
22-Feb-21 14:30 33.669958 -117.869283 41 60ft 0kts
22-Feb-21 14:31 33.669958 -117.869283 41 60ft 0kts
22-Feb-21 14:32 33.670257 -117.869296 12 60ft 4kts
22-Feb-21 14:33 33.672581 -117.867812 31 60ft 13kts
22-Feb-21 14:34 33.674873 -117.866595 28 60ft 16kts
22-Feb-21 14:35 33.678813 -117.864104 27 60ft 12kts
22-Feb-21 14:36 33.679922 -117.863577 309 60ft 0kts
22-Feb-21 14:37 33.679922 -117.863577 309 60ft 0kts
22-Feb-21 14:38 33.678469 -117.865207 207 60ft 53kts
22-Feb-21 14:39 33.658579 -117.875262 185 607ft 81kts
22-Feb-21 14:40 33.635766 -117.877982 177 1259ft 83kts
22-Feb-21 14:41 33.612377 -117.879995 184 1871ft 87kts
22-Feb-21 14:42 33.588523 -117.883001 183 2475ft 86kts
22-Feb-21 14:43 33.564573 -117.886596 183 3044ft 87kts
22-Feb-21 14:44 33.549320 -117.873242 95 3566ft 80kts
22-Feb-21 14:45 33.545218 -117.847041 98 4080ft 80kts
22-Feb-21 14:46 33.540806 -117.820781 98 4566ft 80kts
22-Feb-21 14:47 33.536383 -117.794274 101 4982ft 86kts
22-Feb-21 14:48 33.527352 -117.761869 109 5017ft 112kts
22-Feb-21 14:49 33.510485 -117.730213 132 5082ft 115kts
22-Feb-21 14:50 33.486717 -117.703150 138 5078ft 120kts
22-Feb-21 14:51 33.463362 -117.674346 139 5042ft 118kts
22-Feb-21 14:52 33.439465 -117.648040 137 5017ft 116kts
22-Feb-21 14:53 33.416652 -117.621158 137 4979ft 114kts
22-Feb-21 14:54 33.393427 -117.596275 143 4983ft 110kts
22-Feb-21 14:55 33.370651 -117.571486 139 4976ft 110kts
22-Feb-21 14:56 33.349406 -117.545332 136 4975ft 111kts
22-Feb-21 14:57 33.328740 -117.518359 136 4993ft 110kts
22-Feb-21 14:58 33.306434 -117.494194 137 5037ft 108kts
22-Feb-21 14:59 33.284813 -117.469048 140 5063ft 108kts
22-Feb-21 15:00 33.263240 -117.443726 133 5080ft 110kts
22-Feb-21 15:01 33.241054 -117.418542 139 5067ft 111kts
22-Feb-21 15:02 33.236654 -117.382100 91 5044ft 118kts
22-Feb-21 15:03 33.240076 -117.343028 88 5070ft 116kts
22-Feb-21 15:04 33.242817 -117.303764 87 5020ft 121kts
22-Feb-21 15:05 33.246145 -117.263834 88 5002ft 120kts
22-Feb-21 15:06 33.249049 -117.224528 87 5033ft 118kts
22-Feb-21 15:07 33.252482 -117.185130 87 5031ft 120kts
22-Feb-21 15:08 33.255608 -117.145488 88 5044ft 120kts
22-Feb-21 15:09 33.258676 -117.105645 84 5015ft 118kts
22-Feb-21 15:10 33.261019 -117.064820 86 4053ft 128kts
22-Feb-21 15:11 33.262303 -117.024336 88 4052ft 121kts
22-Feb-21 15:12 33.242593 -117.000405 179 4104ft 115kts
22-Feb-21 15:13 33.213839 -117.012950 214 3967ft 112kts
22-Feb-21 15:14 33.189236 -117.032574 222 3591ft 98kts
22-Feb-21 15:15 33.168145 -117.051544 241 3669ft 92kts
22-Feb-21 15:16 33.160321 -117.079418 257 3543ft 89kts
22-Feb-21 15:17 33.156483 -117.108596 266 3193ft 90kts
22-Feb-21 15:18 33.149851 -117.136923 253 2777ft 89kts
22-Feb-21 15:19 33.146434 -117.165941 263 2534ft 88kts
22-Feb-21 15:20 33.141922 -117.195461 256 1714ft 90kts
22-Feb-21 15:21 33.137511 -117.222665 260 1196ft 82kts
22-Feb-21 15:22 33.133185 -117.249970 260 795ft 89kts
22-Feb-21 15:23 33.129506 -117.272095 261 367ft 58kts
22-Feb-21 15:24 33.127853 -117.279570 224 309ft 0kts
22-Feb-21 15:25 33.127853 -117.279570 224 309ft 0kts
22-Feb-21 15:26 33.127120 -117.280100 169 309ft 9kts

Navigation Log

Ident Type
Flight plan parsing failed, navigation log unavailable